sensor_id;sensor_type;location;lat;lon;timestamp;P1;durP1;ratioP1;P2;durP2;ratioP2
68987;SDS011;56038;46.080;11.116;2024-01-11T00:03:39;20.38;;;12.32;;
68987;SDS011;56038;46.080;11.116;2024-01-11T00:08:42;20.20;;;12.10;;
68987;SDS011;56038;46.080;11.116;2024-01-11T00:13:44;20.88;;;12.27;;
68987;SDS011;56038;46.080;11.116;2024-01-11T00:18:46;21.30;;;12.75;;
68987;SDS011;56038;46.080;11.116;2024-01-11T00:23:49;20.55;;;12.38;;
68987;SDS011;56038;46.080;11.116;2024-01-11T00:28:51;19.45;;;12.27;;
68987;SDS011;56038;46.080;11.116;2024-01-11T00:33:53;20.50;;;13.32;;
68987;SDS011;56038;46.080;11.116;2024-01-11T00:38:56;20.08;;;12.27;;
68987;SDS011;56038;46.080;11.116;2024-01-11T00:43:58;21.15;;;12.75;;
68987;SDS011;56038;46.080;11.116;2024-01-11T00:49:00;19.88;;;12.77;;
68987;SDS011;56038;46.080;11.116;2024-01-11T00:54:03;18.38;;;12.40;;
68987;SDS011;56038;46.080;11.116;2024-01-11T00:59:05;22.63;;;12.60;;
68987;SDS011;56038;46.080;11.116;2024-01-11T01:04:07;19.27;;;11.20;;
68987;SDS011;56038;46.080;11.116;2024-01-11T01:09:10;23.00;;;12.82;;
68987;SDS011;56038;46.080;11.116;2024-01-11T01:14:13;21.35;;;12.98;;
68987;SDS011;56038;46.080;11.116;2024-01-11T01:19:15;22.65;;;13.00;;
68987;SDS011;56038;46.080;11.116;2024-01-11T01:24:18;20.27;;;11.57;;
68987;SDS011;56038;46.080;11.116;2024-01-11T01:29:20;18.05;;;11.98;;
68987;SDS011;56038;46.080;11.116;2024-01-11T01:34:21;19.33;;;12.52;;
68987;SDS011;56038;46.080;11.116;2024-01-11T01:39:25;20.98;;;13.23;;
68987;SDS011;56038;46.080;11.116;2024-01-11T01:44:26;21.52;;;12.98;;
68987;SDS011;56038;46.080;11.116;2024-01-11T01:49:28;18.80;;;11.45;;
68987;SDS011;56038;46.080;11.116;2024-01-11T01:54:32;17.33;;;10.63;;
68987;SDS011;56038;46.080;11.116;2024-01-11T01:59:34;21.00;;;11.90;;
68987;SDS011;56038;46.080;11.116;2024-01-11T02:04:37;18.77;;;11.82;;
68987;SDS011;56038;46.080;11.116;2024-01-11T02:09:41;16.63;;;10.88;;
68987;SDS011;56038;46.080;11.116;2024-01-11T02:14:44;19.83;;;11.25;;
68987;SDS011;56038;46.080;11.116;2024-01-11T02:19:46;14.48;;;9.80;;
68987;SDS011;56038;46.080;11.116;2024-01-11T02:24:49;16.75;;;9.45;;
68987;SDS011;56038;46.080;11.116;2024-01-11T02:29:53;15.55;;;9.63;;
68987;SDS011;56038;46.080;11.116;2024-01-11T02:34:55;17.05;;;10.13;;
68987;SDS011;56038;46.080;11.116;2024-01-11T02:39:58;16.77;;;10.48;;
68987;SDS011;56038;46.080;11.116;2024-01-11T02:45:00;17.38;;;11.55;;
68987;SDS011;56038;46.080;11.116;2024-01-11T02:50:04;19.90;;;10.55;;
68987;SDS011;56038;46.080;11.116;2024-01-11T02:55:08;18.10;;;10.82;;
68987;SDS011;56038;46.080;11.116;2024-01-11T03:00:11;16.08;;;11.13;;
68987;SDS011;56038;46.080;11.116;2024-01-11T03:05:13;17.25;;;10.90;;
68987;SDS011;56038;46.080;11.116;2024-01-11T03:10:17;15.93;;;10.25;;
68987;SDS011;56038;46.080;11.116;2024-01-11T03:15:18;13.82;;;9.25;;
68987;SDS011;56038;46.080;11.116;2024-01-11T03:20:20;17.88;;;10.68;;
68987;SDS011;56038;46.080;11.116;2024-01-11T03:25:26;18.05;;;10.52;;
68987;SDS011;56038;46.080;11.116;2024-01-11T03:30:28;18.98;;;11.50;;
68987;SDS011;56038;46.080;11.116;2024-01-11T03:35:29;17.83;;;10.98;;
68987;SDS011;56038;46.080;11.116;2024-01-11T03:40:32;19.73;;;10.88;;
68987;SDS011;56038;46.080;11.116;2024-01-11T03:45:34;16.77;;;10.90;;
68987;SDS011;56038;46.080;11.116;2024-01-11T03:50:36;21.40;;;11.40;;
68987;SDS011;56038;46.080;11.116;2024-01-11T03:55:39;16.65;;;10.40;;
68987;SDS011;56038;46.080;11.116;2024-01-11T04:00:41;19.75;;;10.52;;
68987;SDS011;56038;46.080;11.116;2024-01-11T04:05:42;14.48;;;10.02;;
68987;SDS011;56038;46.080;11.116;2024-01-11T04:10:46;15.82;;;9.68;;
68987;SDS011;56038;46.080;11.116;2024-01-11T04:15:47;15.63;;;9.93;;
68987;SDS011;56038;46.080;11.116;2024-01-11T04:20:49;13.07;;;9.32;;
68987;SDS011;56038;46.080;11.116;2024-01-11T04:25:53;16.25;;;9.95;;
68987;SDS011;56038;46.080;11.116;2024-01-11T04:30:54;15.00;;;10.32;;
68987;SDS011;56038;46.080;11.116;2024-01-11T04:35:56;16.05;;;10.07;;
68987;SDS011;56038;46.080;11.116;2024-01-11T04:40:59;16.55;;;9.82;;
68987;SDS011;56038;46.080;11.116;2024-01-11T04:46:01;19.23;;;9.30;;
68987;SDS011;56038;46.080;11.116;2024-01-11T04:51:03;13.80;;;9.32;;
68987;SDS011;56038;46.080;11.116;2024-01-11T04:56:07;12.38;;;8.50;;
68987;SDS011;56038;46.080;11.116;2024-01-11T05:01:11;15.10;;;8.50;;
68987;SDS011;56038;46.080;11.116;2024-01-11T05:06:16;16.70;;;8.82;;
68987;SDS011;56038;46.080;11.116;2024-01-11T05:11:20;11.73;;;8.40;;
68987;SDS011;56038;46.080;11.116;2024-01-11T05:16:24;12.13;;;8.10;;
68987;SDS011;56038;46.080;11.116;2024-01-11T05:21:27;14.40;;;9.25;;
68987;SDS011;56038;46.080;11.116;2024-01-11T05:26:31;13.80;;;8.07;;
68987;SDS011;56038;46.080;11.116;2024-01-11T05:31:33;14.90;;;9.20;;
68987;SDS011;56038;46.080;11.116;2024-01-11T05:36:34;14.63;;;8.75;;
68987;SDS011;56038;46.080;11.116;2024-01-11T05:41:38;10.98;;;7.85;;
68987;SDS011;56038;46.080;11.116;2024-01-11T05:46:39;11.60;;;7.43;;
68987;SDS011;56038;46.080;11.116;2024-01-11T05:51:41;11.63;;;7.43;;
68987;SDS011;56038;46.080;11.116;2024-01-11T05:56:44;12.07;;;7.30;;
68987;SDS011;56038;46.080;11.116;2024-01-11T06:01:46;15.65;;;8.85;;
68987;SDS011;56038;46.080;11.116;2024-01-11T06:06:48;14.50;;;9.00;;
68987;SDS011;56038;46.080;11.116;2024-01-11T06:11:51;11.80;;;8.63;;
68987;SDS011;56038;46.080;11.116;2024-01-11T06:16:53;10.95;;;7.35;;
68987;SDS011;56038;46.080;11.116;2024-01-11T06:21:55;10.13;;;7.10;;
68987;SDS011;56038;46.080;11.116;2024-01-11T06:26:58;17.00;;;7.72;;
68987;SDS011;56038;46.080;11.116;2024-01-11T06:32:00;12.48;;;7.57;;
68987;SDS011;56038;46.080;11.116;2024-01-11T06:37:02;14.02;;;7.10;;
68987;SDS011;56038;46.080;11.116;2024-01-11T06:42:05;12.30;;;6.68;;
68987;SDS011;56038;46.080;11.116;2024-01-11T06:47:07;14.38;;;8.23;;
68987;SDS011;56038;46.080;11.116;2024-01-11T06:52:09;10.60;;;7.28;;
68987;SDS011;56038;46.080;11.116;2024-01-11T06:57:14;9.85;;;6.32;;
68987;SDS011;56038;46.080;11.116;2024-01-11T07:02:16;11.63;;;6.87;;
68987;SDS011;56038;46.080;11.116;2024-01-11T07:07:18;9.73;;;6.68;;
68987;SDS011;56038;46.080;11.116;2024-01-11T07:12:22;8.10;;;6.72;;
68987;SDS011;56038;46.080;11.116;2024-01-11T07:17:24;10.15;;;6.65;;
68987;SDS011;56038;46.080;11.116;2024-01-11T07:22:25;8.25;;;6.35;;
68987;SDS011;56038;46.080;11.116;2024-01-11T07:27:29;9.75;;;6.28;;
68987;SDS011;56038;46.080;11.116;2024-01-11T07:32:30;7.88;;;5.25;;
68987;SDS011;56038;46.080;11.116;2024-01-11T07:37:32;7.03;;;6.20;;
68987;SDS011;56038;46.080;11.116;2024-01-11T07:42:38;8.55;;;6.28;;
68987;SDS011;56038;46.080;11.116;2024-01-11T07:47:39;9.83;;;7.03;;
68987;SDS011;56038;46.080;11.116;2024-01-11T07:52:42;14.05;;;7.32;;
68987;SDS011;56038;46.080;11.116;2024-01-11T07:57:45;9.90;;;7.28;;
68987;SDS011;56038;46.080;11.116;2024-01-11T08:02:47;9.60;;;6.82;;
68987;SDS011;56038;46.080;11.116;2024-01-11T08:07:48;6.75;;;5.57;;
68987;SDS011;56038;46.080;11.116;2024-01-11T08:12:52;9.95;;;7.25;;
68987;SDS011;56038;46.080;11.116;2024-01-11T08:17:54;10.25;;;6.97;;
68987;SDS011;56038;46.080;11.116;2024-01-11T08:22:55;14.73;;;8.68;;
68987;SDS011;56038;46.080;11.116;2024-01-11T08:27:59;10.57;;;7.05;;
68987;SDS011;56038;46.080;11.116;2024-01-11T08:33:00;8.45;;;5.78;;
68987;SDS011;56038;46.080;11.116;2024-01-11T08:38:04;7.38;;;5.53;;
68987;SDS011;56038;46.080;11.116;2024-01-11T08:43:07;13.45;;;6.40;;
68987;SDS011;56038;46.080;11.116;2024-01-11T08:48:08;9.88;;;6.70;;
68987;SDS011;56038;46.080;11.116;2024-01-11T08:53:11;13.13;;;7.18;;
68987;SDS011;56038;46.080;11.116;2024-01-11T08:58:14;10.27;;;6.78;;
68987;SDS011;56038;46.080;11.116;2024-01-11T09:03:16;12.30;;;6.93;;
68987;SDS011;56038;46.080;11.116;2024-01-11T09:08:18;9.60;;;7.35;;
68987;SDS011;56038;46.080;11.116;2024-01-11T09:13:21;9.02;;;6.65;;
68987;SDS011;56038;46.080;11.116;2024-01-11T09:18:23;17.60;;;10.82;;
68987;SDS011;56038;46.080;11.116;2024-01-11T09:23:24;9.70;;;7.13;;
68987;SDS011;56038;46.080;11.116;2024-01-11T09:28:28;9.00;;;6.60;;
68987;SDS011;56038;46.080;11.116;2024-01-11T09:33:29;8.95;;;5.10;;
68987;SDS011;56038;46.080;11.116;2024-01-11T09:38:31;6.80;;;4.93;;
68987;SDS011;56038;46.080;11.116;2024-01-11T09:43:35;6.38;;;5.18;;
68987;SDS011;56038;46.080;11.116;2024-01-11T09:48:38;5.45;;;4.82;;
68987;SDS011;56038;46.080;11.116;2024-01-11T09:53:40;7.32;;;5.20;;
68987;SDS011;56038;46.080;11.116;2024-01-11T09:58:46;6.20;;;4.90;;
68987;SDS011;56038;46.080;11.116;2024-01-11T10:03:50;7.03;;;4.95;;
68987;SDS011;56038;46.080;11.116;2024-01-11T10:08:53;7.88;;;4.93;;
68987;SDS011;56038;46.080;11.116;2024-01-11T10:13:57;5.68;;;5.18;;
68987;SDS011;56038;46.080;11.116;2024-01-11T10:19:00;5.03;;;4.53;;
68987;SDS011;56038;46.080;11.116;2024-01-11T10:24:03;8.18;;;5.40;;
68987;SDS011;56038;46.080;11.116;2024-01-11T10:29:07;6.05;;;4.80;;
68987;SDS011;56038;46.080;11.116;2024-01-11T10:34:11;8.40;;;5.07;;
68987;SDS011;56038;46.080;11.116;2024-01-11T10:39:18;5.85;;;5.25;;
68987;SDS011;56038;46.080;11.116;2024-01-11T10:44:26;5.55;;;4.80;;
68987;SDS011;56038;46.080;11.116;2024-01-11T10:49:34;5.82;;;5.18;;
68987;SDS011;56038;46.080;11.116;2024-01-11T10:54:42;5.10;;;4.60;;
68987;SDS011;56038;46.080;11.116;2024-01-11T10:59:47;5.97;;;5.40;;
68987;SDS011;56038;46.080;11.116;2024-01-11T11:09:54;4.82;;;4.25;;
68987;SDS011;56038;46.080;11.116;2024-01-11T11:14:59;5.78;;;4.65;;
68987;SDS011;56038;46.080;11.116;2024-01-11T11:20:03;5.40;;;4.90;;
68987;SDS011;56038;46.080;11.116;2024-01-11T11:25:08;5.88;;;4.70;;
68987;SDS011;56038;46.080;11.116;2024-01-11T11:30:12;5.50;;;5.00;;
68987;SDS011;56038;46.080;11.116;2024-01-11T11:35:14;5.18;;;4.47;;
68987;SDS011;56038;46.080;11.116;2024-01-11T11:40:16;4.80;;;4.30;;
68987;SDS011;56038;46.080;11.116;2024-01-11T11:45:25;5.55;;;4.10;;
68987;SDS011;56038;46.080;11.116;2024-01-11T11:50:29;4.82;;;4.30;;
68987;SDS011;56038;46.080;11.116;2024-01-11T11:55:31;4.90;;;4.40;;
68987;SDS011;56038;46.080;11.116;2024-01-11T12:00:37;4.13;;;3.70;;
68987;SDS011;56038;46.080;11.116;2024-01-11T12:05:39;4.88;;;3.95;;
68987;SDS011;56038;46.080;11.116;2024-01-11T12:10:41;6.03;;;4.28;;
68987;SDS011;56038;46.080;11.116;2024-01-11T12:15:45;6.22;;;4.32;;
68987;SDS011;56038;46.080;11.116;2024-01-11T12:20:47;4.25;;;3.85;;
68987;SDS011;56038;46.080;11.116;2024-01-11T12:25:49;4.15;;;3.80;;
68987;SDS011;56038;46.080;11.116;2024-01-11T12:30:52;4.15;;;3.75;;
68987;SDS011;56038;46.080;11.116;2024-01-11T12:35:54;6.55;;;3.30;;
68987;SDS011;56038;46.080;11.116;2024-01-11T12:40:56;4.18;;;3.28;;
68987;SDS011;56038;46.080;11.116;2024-01-11T12:45:59;4.18;;;3.53;;
68987;SDS011;56038;46.080;11.116;2024-01-11T12:51:01;3.88;;;3.08;;
68987;SDS011;56038;46.080;11.116;2024-01-11T12:56:05;3.88;;;3.30;;
68987;SDS011;56038;46.080;11.116;2024-01-11T13:01:11;4.88;;;3.65;;
68987;SDS011;56038;46.080;11.116;2024-01-11T13:06:14;5.78;;;3.00;;
68987;SDS011;56038;46.080;11.116;2024-01-11T13:11:17;6.10;;;3.50;;
68987;SDS011;56038;46.080;11.116;2024-01-11T13:16:22;4.82;;;3.47;;
68987;SDS011;56038;46.080;11.116;2024-01-11T13:21:26;3.80;;;2.80;;
68987;SDS011;56038;46.080;11.116;2024-01-11T13:26:28;3.75;;;3.30;;
68987;SDS011;56038;46.080;11.116;2024-01-11T13:31:31;4.65;;;2.90;;
68987;SDS011;56038;46.080;11.116;2024-01-11T13:36:33;2.88;;;2.67;;
68987;SDS011;56038;46.080;11.116;2024-01-11T13:41:36;3.47;;;2.92;;
68987;SDS011;56038;46.080;11.116;2024-01-11T13:46:42;2.80;;;2.60;;
68987;SDS011;56038;46.080;11.116;2024-01-11T13:51:44;3.10;;;2.90;;
68987;SDS011;56038;46.080;11.116;2024-01-11T13:56:47;3.15;;;2.80;;
68987;SDS011;56038;46.080;11.116;2024-01-11T14:01:50;3.78;;;3.15;;
68987;SDS011;56038;46.080;11.116;2024-01-11T14:06:53;4.72;;;3.17;;
68987;SDS011;56038;46.080;11.116;2024-01-11T14:11:55;3.22;;;2.92;;
68987;SDS011;56038;46.080;11.116;2024-01-11T14:16:58;4.07;;;3.35;;
68987;SDS011;56038;46.080;11.116;2024-01-11T14:22:00;3.75;;;3.38;;
68987;SDS011;56038;46.080;11.116;2024-01-11T14:27:02;4.13;;;3.38;;
68987;SDS011;56038;46.080;11.116;2024-01-11T14:32:06;5.97;;;2.83;;
68987;SDS011;56038;46.080;11.116;2024-01-11T14:37:08;3.60;;;3.30;;
68987;SDS011;56038;46.080;11.116;2024-01-11T14:42:10;3.75;;;3.45;;
68987;SDS011;56038;46.080;11.116;2024-01-11T14:47:13;3.13;;;2.83;;
68987;SDS011;56038;46.080;11.116;2024-01-11T14:52:16;6.65;;;3.30;;
68987;SDS011;56038;46.080;11.116;2024-01-11T14:57:18;3.20;;;2.85;;
68987;SDS011;56038;46.080;11.116;2024-01-11T15:02:22;3.83;;;3.45;;
68987;SDS011;56038;46.080;11.116;2024-01-11T15:07:24;5.10;;;3.70;;
68987;SDS011;56038;46.080;11.116;2024-01-11T15:12:27;4.05;;;3.35;;
68987;SDS011;56038;46.080;11.116;2024-01-11T15:17:30;4.30;;;3.47;;
68987;SDS011;56038;46.080;11.116;2024-01-11T15:22:32;8.82;;;3.40;;
68987;SDS011;56038;46.080;11.116;2024-01-11T15:27:34;4.28;;;3.17;;
68987;SDS011;56038;46.080;11.116;2024-01-11T15:32:37;4.43;;;3.55;;
68987;SDS011;56038;46.080;11.116;2024-01-11T15:37:39;4.88;;;2.95;;
68987;SDS011;56038;46.080;11.116;2024-01-11T15:42:40;5.35;;;2.97;;
68987;SDS011;56038;46.080;11.116;2024-01-11T15:47:44;3.88;;;3.13;;
68987;SDS011;56038;46.080;11.116;2024-01-11T15:52:45;5.63;;;4.00;;
68987;SDS011;56038;46.080;11.116;2024-01-11T15:57:47;4.70;;;3.13;;
68987;SDS011;56038;46.080;11.116;2024-01-11T16:02:51;4.00;;;3.22;;
68987;SDS011;56038;46.080;11.116;2024-01-11T16:07:53;4.28;;;3.40;;
68987;SDS011;56038;46.080;11.116;2024-01-11T16:12:55;5.10;;;4.45;;
68987;SDS011;56038;46.080;11.116;2024-01-11T16:17:58;7.57;;;4.22;;
68987;SDS011;56038;46.080;11.116;2024-01-11T16:23:01;6.07;;;4.13;;
68987;SDS011;56038;46.080;11.116;2024-01-11T16:28:03;5.38;;;3.92;;
68987;SDS011;56038;46.080;11.116;2024-01-11T16:33:06;6.55;;;4.55;;
68987;SDS011;56038;46.080;11.116;2024-01-11T16:38:09;6.68;;;3.83;;
68987;SDS011;56038;46.080;11.116;2024-01-11T16:43:11;8.70;;;4.68;;
68987;SDS011;56038;46.080;11.116;2024-01-11T16:48:14;4.68;;;4.10;;
68987;SDS011;56038;46.080;11.116;2024-01-11T16:53:17;4.13;;;3.15;;
68987;SDS011;56038;46.080;11.116;2024-01-11T16:58:20;7.30;;;4.35;;
68987;SDS011;56038;46.080;11.116;2024-01-11T17:03:23;7.55;;;4.40;;
68987;SDS011;56038;46.080;11.116;2024-01-11T17:08:24;10.88;;;5.43;;
68987;SDS011;56038;46.080;11.116;2024-01-11T17:13:26;13.35;;;8.38;;
68987;SDS011;56038;46.080;11.116;2024-01-11T17:18:29;8.55;;;5.53;;
68987;SDS011;56038;46.080;11.116;2024-01-11T17:23:31;7.65;;;5.43;;
68987;SDS011;56038;46.080;11.116;2024-01-11T17:28:33;8.50;;;5.28;;
68987;SDS011;56038;46.080;11.116;2024-01-11T17:33:36;10.10;;;4.85;;
68987;SDS011;56038;46.080;11.116;2024-01-11T17:38:38;8.18;;;5.43;;
68987;SDS011;56038;46.080;11.116;2024-01-11T17:43:39;7.15;;;5.85;;
68987;SDS011;56038;46.080;11.116;2024-01-11T17:48:43;8.57;;;5.85;;
68987;SDS011;56038;46.080;11.116;2024-01-11T17:53:44;9.15;;;6.78;;
68987;SDS011;56038;46.080;11.116;2024-01-11T17:58:48;15.45;;;8.20;;
68987;SDS011;56038;46.080;11.116;2024-01-11T18:03:51;15.02;;;8.35;;
68987;SDS011;56038;46.080;11.116;2024-01-11T18:08:53;9.35;;;7.63;;
68987;SDS011;56038;46.080;11.116;2024-01-11T18:13:55;12.93;;;7.70;;
68987;SDS011;56038;46.080;11.116;2024-01-11T18:18:58;9.15;;;7.35;;
68987;SDS011;56038;46.080;11.116;2024-01-11T18:24:00;13.77;;;9.02;;
68987;SDS011;56038;46.080;11.116;2024-01-11T18:29:02;11.55;;;8.40;;
68987;SDS011;56038;46.080;11.116;2024-01-11T18:34:05;12.70;;;9.32;;
68987;SDS011;56038;46.080;11.116;2024-01-11T18:39:07;16.17;;;8.85;;
68987;SDS011;56038;46.080;11.116;2024-01-11T18:44:10;20.45;;;10.02;;
68987;SDS011;56038;46.080;11.116;2024-01-11T18:49:14;15.70;;;9.10;;
68987;SDS011;56038;46.080;11.116;2024-01-11T18:54:17;11.82;;;8.05;;
68987;SDS011;56038;46.080;11.116;2024-01-11T18:59:18;9.95;;;7.80;;
68987;SDS011;56038;46.080;11.116;2024-01-11T19:04:22;12.43;;;9.02;;
68987;SDS011;56038;46.080;11.116;2024-01-11T19:09:24;13.02;;;8.77;;
68987;SDS011;56038;46.080;11.116;2024-01-11T19:14:26;14.73;;;9.45;;
68987;SDS011;56038;46.080;11.116;2024-01-11T19:19:29;13.18;;;8.18;;
68987;SDS011;56038;46.080;11.116;2024-01-11T19:24:31;15.25;;;8.20;;
68987;SDS011;56038;46.080;11.116;2024-01-11T19:29:35;13.27;;;8.68;;
68987;SDS011;56038;46.080;11.116;2024-01-11T19:34:39;13.07;;;8.60;;
68987;SDS011;56038;46.080;11.116;2024-01-11T19:39:41;18.65;;;8.77;;
68987;SDS011;56038;46.080;11.116;2024-01-11T19:44:42;12.63;;;8.70;;
68987;SDS011;56038;46.080;11.116;2024-01-11T19:49:45;12.20;;;8.18;;
68987;SDS011;56038;46.080;11.116;2024-01-11T19:54:48;17.55;;;10.85;;
68987;SDS011;56038;46.080;11.116;2024-01-11T19:59:49;11.45;;;8.35;;
68987;SDS011;56038;46.080;11.116;2024-01-11T20:04:53;13.07;;;8.27;;
68987;SDS011;56038;46.080;11.116;2024-01-11T20:09:55;12.15;;;10.20;;
68987;SDS011;56038;46.080;11.116;2024-01-11T20:14:57;20.17;;;11.25;;
68987;SDS011;56038;46.080;11.116;2024-01-11T20:20:00;13.10;;;9.90;;
68987;SDS011;56038;46.080;11.116;2024-01-11T20:25:02;15.45;;;9.70;;
68987;SDS011;56038;46.080;11.116;2024-01-11T20:30:04;14.35;;;10.90;;
68987;SDS011;56038;46.080;11.116;2024-01-11T20:35:09;15.88;;;9.88;;
68987;SDS011;56038;46.080;11.116;2024-01-11T20:40:10;13.30;;;8.88;;
68987;SDS011;56038;46.080;11.116;2024-01-11T20:45:12;11.88;;;7.47;;
68987;SDS011;56038;46.080;11.116;2024-01-11T20:50:15;12.30;;;8.18;;
68987;SDS011;56038;46.080;11.116;2024-01-11T20:55:17;14.02;;;8.05;;
68987;SDS011;56038;46.080;11.116;2024-01-11T21:00:19;10.93;;;7.35;;
68987;SDS011;56038;46.080;11.116;2024-01-11T21:05:23;10.00;;;7.55;;
68987;SDS011;56038;46.080;11.116;2024-01-11T21:10:25;11.68;;;8.35;;
68987;SDS011;56038;46.080;11.116;2024-01-11T21:15:27;14.07;;;8.43;;
68987;SDS011;56038;46.080;11.116;2024-01-11T21:20:30;13.40;;;9.35;;
68987;SDS011;56038;46.080;11.116;2024-01-11T21:25:32;10.90;;;7.97;;
68987;SDS011;56038;46.080;11.116;2024-01-11T21:30:33;10.77;;;8.27;;
68987;SDS011;56038;46.080;11.116;2024-01-11T21:35:37;9.00;;;7.10;;
68987;SDS011;56038;46.080;11.116;2024-01-11T21:40:38;10.60;;;6.82;;
68987;SDS011;56038;46.080;11.116;2024-01-11T21:45:41;9.20;;;6.60;;
68987;SDS011;56038;46.080;11.116;2024-01-11T21:50:44;10.77;;;6.78;;
68987;SDS011;56038;46.080;11.116;2024-01-11T21:55:46;12.60;;;7.90;;
68987;SDS011;56038;46.080;11.116;2024-01-11T22:00:49;13.30;;;6.47;;
68987;SDS011;56038;46.080;11.116;2024-01-11T22:05:54;8.38;;;7.00;;
68987;SDS011;56038;46.080;11.116;2024-01-11T22:10:56;13.30;;;8.00;;
68987;SDS011;56038;46.080;11.116;2024-01-11T22:15:58;10.30;;;7.10;;
68987;SDS011;56038;46.080;11.116;2024-01-11T22:21:03;13.38;;;8.57;;
68987;SDS011;56038;46.080;11.116;2024-01-11T22:26:05;11.05;;;7.60;;
68987;SDS011;56038;46.080;11.116;2024-01-11T22:31:07;9.65;;;6.85;;
68987;SDS011;56038;46.080;11.116;2024-01-11T22:36:10;9.60;;;6.40;;
68987;SDS011;56038;46.080;11.116;2024-01-11T22:41:12;9.15;;;6.65;;
68987;SDS011;56038;46.080;11.116;2024-01-11T22:46:15;11.15;;;6.68;;
68987;SDS011;56038;46.080;11.116;2024-01-11T22:51:18;9.60;;;6.18;;
68987;SDS011;56038;46.080;11.116;2024-01-11T22:56:20;8.60;;;6.55;;
68987;SDS011;56038;46.080;11.116;2024-01-11T23:01:22;9.57;;;6.93;;
68987;SDS011;56038;46.080;11.116;2024-01-11T23:06:25;7.63;;;5.45;;
68987;SDS011;56038;46.080;11.116;2024-01-11T23:11:27;11.63;;;6.82;;
68987;SDS011;56038;46.080;11.116;2024-01-11T23:16:29;9.10;;;6.07;;
68987;SDS011;56038;46.080;11.116;2024-01-11T23:21:32;9.38;;;5.95;;
68987;SDS011;56038;46.080;11.116;2024-01-11T23:26:34;9.32;;;6.57;;
68987;SDS011;56038;46.080;11.116;2024-01-11T23:31:35;8.88;;;6.15;;
68987;SDS011;56038;46.080;11.116;2024-01-11T23:36:38;7.97;;;5.85;;
68987;SDS011;56038;46.080;11.116;2024-01-11T23:41:40;8.23;;;5.75;;
68987;SDS011;56038;46.080;11.116;2024-01-11T23:46:42;9.00;;;5.15;;
68987;SDS011;56038;46.080;11.116;2024-01-11T23:51:45;7.60;;;5.30;;
68987;SDS011;56038;46.080;11.116;2024-01-11T23:56:47;7.43;;;5.50;;
